createdAt,value
2023-03-01T00:03:45.621Z,11.77
2023-03-01T00:08:51.481Z,13.47
2023-03-01T00:13:59.321Z,12.20
2023-03-01T00:19:04.815Z,12.63
2023-03-01T00:24:11.589Z,9.70
2023-03-01T00:29:16.824Z,8.93
2023-03-01T00:34:22.205Z,9.67
2023-03-01T00:39:27.318Z,8.60
2023-03-01T00:44:32.465Z,7.70
2023-03-01T00:49:38.127Z,9.07
2023-03-01T00:54:43.323Z,6.90
2023-03-01T00:59:49.132Z,9.87
2023-03-01T01:04:54.428Z,10.47
2023-03-01T01:09:59.627Z,5.77
2023-03-01T01:15:05.006Z,9.47
2023-03-01T01:20:11.083Z,9.73
2023-03-01T01:25:16.253Z,6.80
2023-03-01T01:30:21.492Z,8.53
2023-03-01T01:35:26.891Z,10.40
2023-03-01T01:40:32.204Z,8.37
2023-03-01T01:45:38.649Z,9.37
2023-03-01T01:50:46.496Z,9.00
2023-03-01T01:55:54.757Z,9.93
2023-03-01T02:01:01.816Z,10.83
2023-03-01T02:06:10.038Z,9.73
2023-03-01T02:11:16.217Z,7.87
2023-03-01T02:16:22.145Z,7.20
2023-03-01T02:21:42.612Z,9.70
2023-03-01T02:26:54.094Z,6.67
2023-03-01T02:32:02.518Z,9.10
2023-03-01T02:37:13.736Z,7.00
2023-03-01T02:42:22.013Z,7.97
2023-03-01T02:47:27.208Z,9.27
2023-03-01T02:52:42.111Z,5.90
2023-03-01T02:57:52.656Z,6.67
2023-03-01T03:02:59.189Z,7.70
2023-03-01T03:08:05.435Z,8.67
2023-03-01T03:13:13.352Z,9.03
2023-03-01T03:18:19.950Z,8.50
2023-03-01T03:23:25.699Z,10.60
2023-03-01T03:28:32.005Z,5.37
2023-03-01T03:33:37.978Z,6.13
2023-03-01T03:38:43.291Z,6.80
2023-03-01T03:43:50.361Z,7.60
2023-03-01T03:48:56.940Z,5.07
2023-03-01T03:54:02.534Z,8.47
2023-03-01T03:59:07.742Z,7.97
2023-03-01T04:04:13.536Z,7.80
2023-03-01T04:09:18.978Z,8.03
2023-03-01T04:14:24.227Z,9.20
2023-03-01T04:19:29.530Z,9.23
2023-03-01T04:24:35.458Z,7.30
2023-03-01T04:29:40.667Z,7.40
2023-03-01T04:34:45.899Z,8.17
2023-03-01T04:39:51.049Z,9.73
2023-03-01T04:44:56.136Z,5.83
2023-03-01T04:50:04.932Z,7.10
2023-03-01T04:55:11.236Z,5.80
2023-03-01T05:00:22.912Z,5.33
2023-03-01T05:05:31.361Z,6.80
2023-03-01T05:10:39.852Z,6.13
2023-03-01T05:15:45.066Z,4.70
2023-03-01T05:20:50.330Z,5.27
2023-03-01T05:25:56.278Z,5.80
2023-03-01T05:31:02.490Z,5.30
2023-03-01T05:36:11.066Z,8.00
2023-03-01T05:41:18.404Z,9.03
2023-03-01T05:46:25.666Z,7.50
2023-03-01T05:51:31.154Z,6.70
2023-03-01T05:56:38.044Z,7.77
2023-03-01T06:01:43.593Z,8.57
2023-03-01T06:06:49.504Z,7.97
2023-03-01T06:11:54.898Z,9.27
2023-03-01T06:17:00.372Z,9.10
2023-03-01T06:22:05.627Z,8.53
2023-03-01T06:27:12.317Z,7.63
2023-03-01T06:32:17.962Z,10.40
2023-03-01T06:37:23.151Z,7.30
2023-03-01T06:42:28.324Z,9.27
2023-03-01T06:47:34.564Z,10.63
2023-03-01T06:52:40.280Z,8.90
2023-03-01T06:57:45.818Z,11.63
2023-03-01T07:02:51.161Z,7.97
2023-03-01T07:07:58.423Z,11.83
2023-03-01T07:13:03.649Z,9.13
2023-03-01T07:18:08.823Z,6.63
2023-03-01T07:23:14.330Z,6.37
2023-03-01T07:28:19.658Z,6.30
2023-03-01T07:33:24.879Z,7.47
2023-03-01T07:38:31.345Z,6.30
2023-03-01T07:43:36.744Z,6.27
2023-03-01T07:48:44.022Z,5.20
2023-03-01T07:53:50.845Z,5.43
2023-03-01T07:58:56.221Z,4.63
2023-03-01T08:04:01.548Z,5.73
2023-03-01T08:09:07.465Z,4.50
2023-03-01T08:14:12.882Z,6.07
2023-03-01T08:19:18.265Z,6.10
2023-03-01T08:24:24.128Z,5.33
2023-03-01T08:29:29.970Z,6.10
2023-03-01T08:34:36.713Z,5.33
2023-03-01T08:39:42.000Z,5.53
2023-03-01T08:44:47.333Z,6.80
2023-03-01T08:49:53.932Z,6.73
2023-03-01T08:54:59.164Z,7.50
2023-03-01T09:00:07.621Z,9.10
2023-03-01T09:05:12.838Z,7.57
2023-03-01T09:10:20.484Z,11.00
2023-03-01T09:15:34.209Z,8.00
2023-03-01T09:20:41.086Z,7.23
2023-03-01T09:25:47.271Z,6.33
2023-03-01T09:30:56.965Z,6.97
2023-03-01T09:36:09.025Z,6.13
2023-03-01T09:41:26.537Z,7.60
2023-03-01T09:46:36.489Z,6.73
2023-03-01T09:51:46.390Z,8.13
2023-03-01T09:57:19.940Z,7.73
2023-03-01T10:02:36.741Z,8.27
2023-03-01T10:07:47.703Z,8.03
2023-03-01T10:12:56.510Z,8.70
2023-03-01T10:18:10.519Z,9.10
2023-03-01T10:23:24.854Z,7.87
2023-03-01T10:28:49.505Z,6.73
2023-03-01T10:33:56.238Z,6.63
2023-03-01T10:39:05.674Z,6.13
2023-03-01T10:44:13.943Z,6.90
2023-03-01T10:49:26.385Z,8.23
2023-03-01T10:54:35.376Z,6.60
2023-03-01T10:59:41.592Z,6.63
2023-03-01T11:05:10.406Z,5.77
2023-03-01T11:10:22.056Z,5.73
2023-03-01T11:15:30.967Z,5.20
2023-03-01T11:20:39.638Z,6.17
2023-03-01T11:25:48.089Z,5.93
2023-03-01T11:31:08.557Z,4.60
2023-03-01T11:36:28.336Z,4.33
2023-03-01T11:41:37.876Z,4.93
2023-03-01T11:46:55.105Z,4.63
2023-03-01T11:52:21.342Z,4.90
2023-03-01T11:57:43.495Z,4.53
2023-03-01T12:02:59.740Z,5.33
2023-03-01T12:08:14.611Z,5.10
2023-03-01T12:13:39.625Z,4.80
2023-03-01T12:18:48.175Z,4.47
2023-03-01T12:24:08.376Z,4.67
2023-03-01T12:29:25.246Z,4.67
2023-03-01T12:34:56.997Z,4.40
2023-03-01T12:40:13.910Z,6.10
2023-03-01T12:45:38.848Z,4.80
2023-03-01T12:50:46.656Z,6.47
2023-03-01T12:55:56.250Z,4.53
2023-03-01T13:01:33.015Z,4.97
2023-03-01T13:06:47.707Z,4.70
2023-03-01T13:11:53.357Z,5.27
2023-03-01T13:16:58.524Z,3.97
2023-03-01T13:22:06.702Z,6.83
2023-03-01T13:27:13.699Z,5.37
2023-03-01T13:32:47.992Z,5.23
2023-03-01T13:37:40.452Z,4.93
2023-03-01T13:42:59.415Z,5.63
2023-03-01T13:48:18.936Z,5.00
2023-03-01T13:53:27.645Z,4.27
2023-03-01T13:59:06.718Z,6.70
2023-03-01T14:04:28.117Z,6.00
2023-03-01T14:09:37.202Z,4.30
2023-03-01T14:15:18.181Z,7.87
2023-03-01T14:20:26.599Z,8.43
2023-03-01T14:25:34.969Z,5.20
2023-03-01T14:30:46.044Z,7.27
2023-03-01T14:36:03.271Z,4.30
2023-03-01T14:41:21.437Z,5.80
2023-03-01T14:46:30.683Z,3.63
2023-03-01T14:51:44.657Z,5.43
2023-03-01T14:56:58.692Z,12.93
2023-03-01T15:02:03.967Z,20.57
2023-03-01T15:07:13.127Z,11.63
2023-03-01T15:12:31.691Z,10.03
2023-03-01T15:17:39.630Z,4.93
2023-03-01T15:22:49.070Z,5.13
2023-03-01T15:27:56.472Z,13.87
2023-03-01T15:33:29.274Z,12.93
2023-03-01T15:38:44.490Z,10.37
2023-03-01T15:43:50.897Z,29.20
2023-03-01T15:48:59.109Z,12.20
2023-03-01T15:54:07.403Z,4.47
2023-03-01T15:59:15.250Z,4.33
2023-03-01T16:04:24.430Z,101.27
2023-03-01T16:09:29.693Z,56.57
2023-03-01T16:14:34.836Z,11.13
2023-03-01T16:19:42.256Z,9.23
2023-03-01T16:24:47.471Z,11.67
2023-03-01T16:29:52.974Z,10.03
2023-03-01T16:34:58.209Z,33.03
2023-03-01T16:40:05.530Z,21.43
2023-03-01T16:45:22.709Z,27.57
2023-03-01T16:50:18.589Z,30.40
2023-03-01T16:55:24.378Z,19.47
2023-03-01T17:00:29.816Z,16.30
2023-03-01T17:05:35.087Z,12.83
2023-03-01T17:10:40.334Z,14.33
2023-03-01T17:15:45.516Z,23.13
2023-03-01T17:20:50.695Z,27.13
2023-03-01T17:25:56.879Z,26.63
2023-03-01T17:31:03.996Z,44.17
2023-03-01T17:36:09.479Z,44.67
2023-03-01T17:41:16.427Z,29.67
2023-03-01T17:46:22.251Z,19.03
2023-03-01T17:51:27.467Z,16.67
2023-03-01T17:56:34.218Z,10.43
2023-03-01T18:01:42.814Z,10.93
2023-03-01T18:06:48.401Z,12.10
2023-03-01T18:11:54.292Z,11.67
2023-03-01T18:16:59.381Z,13.17
2023-03-01T18:22:04.740Z,14.63
2023-03-01T18:27:11.206Z,19.63
2023-03-01T18:32:16.507Z,24.47
2023-03-01T18:37:21.939Z,22.83
2023-03-01T18:42:29.154Z,28.83
2023-03-01T18:47:34.284Z,26.40
2023-03-01T18:52:39.394Z,25.47
2023-03-01T18:57:44.747Z,29.10
2023-03-01T19:02:50.063Z,31.17
2023-03-01T19:07:55.845Z,29.07
2023-03-01T19:13:01.129Z,29.30
2023-03-01T19:18:06.390Z,28.67
2023-03-01T19:23:13.500Z,28.37
2023-03-01T19:28:18.238Z,28.07
2023-03-01T19:33:24.362Z,26.10
2023-03-01T19:38:31.678Z,18.07
2023-03-01T19:43:36.930Z,14.53
2023-03-01T19:48:44.094Z,12.13
2023-03-01T19:53:49.499Z,12.33
2023-03-01T19:58:56.454Z,11.50
2023-03-01T20:04:06.279Z,14.27
2023-03-01T20:09:21.075Z,12.93
2023-03-01T20:14:23.226Z,13.93
2023-03-01T20:19:26.972Z,17.17
2023-03-01T20:24:32.265Z,15.47
2023-03-01T20:29:37.833Z,15.90
2023-03-01T20:34:43.088Z,19.23
2023-03-01T20:39:48.207Z,20.13
2023-03-01T20:44:53.409Z,21.67
2023-03-01T20:50:00.222Z,27.63
2023-03-01T20:55:05.655Z,24.60
2023-03-01T21:00:11.674Z,22.47
2023-03-01T21:05:16.997Z,23.73
2023-03-01T21:10:22.319Z,19.83
2023-03-01T21:15:29.636Z,15.93
2023-03-01T21:20:34.457Z,19.47
2023-03-01T21:25:39.696Z,18.57
2023-03-01T21:30:44.768Z,19.40
2023-03-01T21:35:50.525Z,21.77
2023-03-01T21:40:55.718Z,25.10
2023-03-01T21:46:10.762Z,20.83
2023-03-01T21:51:17.913Z,20.87
2023-03-01T21:56:25.926Z,17.57
2023-03-01T22:01:31.178Z,28.03
2023-03-01T22:06:41.095Z,33.40
2023-03-01T22:11:49.726Z,34.87
2023-03-01T22:16:54.991Z,29.87
2023-03-01T22:22:00.243Z,35.33
2023-03-01T22:27:05.461Z,29.07
2023-03-01T22:32:10.727Z,32.40
2023-03-01T22:37:16.459Z,29.43
2023-03-01T22:42:21.778Z,27.07
2023-03-01T22:47:27.420Z,35.07
2023-03-01T22:52:32.690Z,29.53
2023-03-01T22:57:37.812Z,27.23
2023-03-01T23:02:43.153Z,23.10
2023-03-01T23:07:49.037Z,25.53
2023-03-01T23:12:57.444Z,21.80
2023-03-01T23:18:02.821Z,16.07
2023-03-01T23:23:08.010Z,17.17
2023-03-01T23:28:13.163Z,20.17
2023-03-01T23:33:18.223Z,18.20
2023-03-01T23:38:23.672Z,16.30
2023-03-01T23:43:28.868Z,18.00
2023-03-01T23:48:35.057Z,16.53
2023-03-01T23:53:43.188Z,17.03
2023-03-01T23:58:50.052Z,18.13
